aviador You're here:

LKTB Decoded Metar

TURANY in CZECH REPUBLIC
Report Time2017-09-23 21:30:00
UTC Time2017-09-23 21:49:26
Flight Rules vfr VFR
WindVRB at 01 kt
Visibility9999 m
Phenomena:N/A
Clouds:Overcast 036 Hf
Expected CloudBase > 400 ft AGL from Temp-Dew spread
Ceiling3,600 ft
Temp11°C (ISA -2)
Dew Point10°C (94% RH)
AAT10.7°C
QNH1019 hPa
Density Alt486 ft
Elevation807 ft
Report Wrong Elevation
Raw Report
LKTB 232130Z VRB01KT 9999 OVC036 11/10 Q1019 NOSIG=

Extra information for LKTB:More info

Metar Taf Metar & Taf Last 4 Metars F.Rules Stats Wind Profile Meteogram Temp Stats Airport Information Weather charts Add Link Nearby VenuesMetar ALERT Operation Metar Decoded Social comments